Fabian Garcia SC Data

Date Time Air Temperature Relative Humidity Dewpoint Heat Index Wind Speed Wind Dir. Rain Solar Radiation Soil Temperature
2m 2m 3m 3m 10cm
US/Mountain F % F F MPH deg in MJ/m^2 F
max avg avg
2021-05-04 00:05:00 65.7 24.8 28.7 65.7 3.5 6.0 4.9 299.6 332.2 0.00 0.0000222 62.7
2021-05-04 00:10:00 65.6 24.9 28.7 65.6 2.1 6.2 4.2 302.2 322.8 0.00 0.0000162 62.7
2021-05-04 00:15:00 64.6 26.1 29.0 64.6 2.4 3.8 1.8 277.1 283.2 0.00 0.0000343 62.6
2021-05-04 00:20:00 64.2 26.7 29.2 64.2 0.0 2.6 0.7 272.6 252.5 0.00 0.0000343 62.5
2021-05-04 00:25:00 63.7 27.2 29.2 63.7 1.5 1.5 0.2 282.4 262.1 0.00 0.0000404 62.5
2021-05-04 00:30:00 62.8 28.7 29.8 62.8 1.2 3.0 2.0 232.9 238.9 0.00 0.0000222 62.5
2021-05-04 00:35:00 62.6 28.9 29.8 62.6 0.0 1.3 0.2 125.4 209.1 0.00 0.0000000 62.4
2021-05-04 00:40:00 62.5 28.4 29.3 62.5 0.8 2.2 0.9 109.5 74.2 0.00 0.0000040 62.3
2021-05-04 00:45:00 62.5 29.0 29.8 62.5 0.0 2.2 0.5 120.2 153.3 0.00 0.0000000 62.3
2021-05-04 00:50:00 61.8 28.6 28.8 61.8 1.9 3.1 1.5 135.0 154.5 0.00 0.0000000 62.3
2021-05-04 00:55:00 61.9 28.6 28.9 61.9 1.9 1.9 0.7 140.2 146.5 0.00 0.0000000 62.2
2021-05-04 01:00:00 61.7 28.9 29.1 61.7 1.0 3.3 1.4 117.4 141.2 0.00 0.0000000 62.1
2021-05-04 01:05:00 61.7 33.1 32.4 61.7 1.7 4.7 2.0 201.1 185.3 0.00 0.0000000 62.1
2021-05-04 01:10:00 61.3 37.6 35.2 61.3 2.8 3.1 1.6 125.8 142.2 0.00 0.0000000 62.1
2021-05-04 01:15:00 61.0 41.5 37.4 61.0 2.8 4.4 1.7 210.0 163.7 0.00 0.0000000 62.0
2021-05-04 01:20:00 60.6 44.8 39.0 60.6 3.7 6.3 4.0 176.0 184.8 0.00 0.0000000 62.0
2021-05-04 01:25:00 60.3 46.5 39.7 60.3 2.4 7.2 3.8 167.4 174.2 0.00 0.0000000 61.9
2021-05-04 01:30:00 60.1 47.8 40.2 60.1 1.5 5.3 2.1 227.0 173.1 0.00 0.0000000 61.9
2021-05-04 01:35:00 59.8 48.4 40.3 59.8 2.4 3.5 1.7 172.3 165.5 0.00 0.0000000 61.8
2021-05-04 01:40:00 59.4 49.1 40.3 59.4 1.2 1.7 0.4 145.2 157.2 0.00 0.0000020 61.8
2021-05-04 01:45:00 58.9 49.6 40.1 58.9 0.0 2.2 0.5 198.6 144.0 0.00 0.0000000 61.7
2021-05-04 01:50:00 58.6 50.3 40.2 58.6 0.0 0.8 0.0 132.4 191.1 0.00 0.0000000 61.7
2021-05-04 01:55:00 58.1 51.2 40.1 58.1 0.0 0.8 0.0 115.1 148.8 0.00 0.0000000 61.7
2021-05-04 02:00:00 57.8 51.1 39.8 57.8 0.0 0.0 0.0 142.3 0.0 0.00 0.0000000 61.6
2021-05-04 02:05:00 57.3 51.7 39.7 57.3 2.4 2.6 0.4 184.5 165.9 0.00 0.0000020 61.6
2021-05-04 02:10:00 57.0 53.3 40.2 57.0 0.8 2.8 1.9 222.6 209.1 0.00 0.0000000 61.5
2021-05-04 02:15:00 56.2 54.6 40.1 56.2 3.3 3.7 1.0 220.5 226.4 0.00 0.0000020 61.5
2021-05-04 02:20:00 56.0 56.5 40.7 56.0 3.0 3.3 2.9 258.2 240.6 0.00 0.0000081 61.4
2021-05-04 02:25:00 55.8 56.4 40.5 55.8 0.0 2.8 1.0 197.8 242.0 0.00 0.0000040 61.4
2021-05-04 02:30:00 55.6 55.9 40.1 55.6 0.0 0.0 0.0 183.5 0.0 0.00 0.0000141 61.4
2021-05-04 02:35:00 55.5 56.0 40.0 55.5 0.0 1.0 0.2 239.1 218.3 0.00 0.0000182 61.3
2021-05-04 02:40:00 55.3 57.3 40.5 55.3 0.0 0.0 0.0 246.3 0.0 0.00 0.0000404 61.3
2021-05-04 02:45:00 55.1 56.1 39.7 55.1 0.0 0.0 0.0 276.6 0.0 0.00 0.0000283 61.2
2021-05-04 02:50:00 54.8 54.3 38.6 54.8 0.0 0.0 0.0 290.2 0.0 0.00 0.0000263 61.2
2021-05-04 02:55:00 54.4 59.8 40.7 54.4 0.0 0.0 0.0 225.8 0.0 0.00 0.0000222 61.1
2021-05-04 03:00:00 54.1 60.7 40.8 54.1 0.0 0.0 0.0 220.3 0.0 0.00 0.0000081 61.1
2021-05-04 03:05:00 54.0 60.2 40.5 54.0 0.0 0.0 0.0 239.1 0.0 0.00 0.0000081 61.1
2021-05-04 03:10:00 53.6 58.0 39.2 53.6 0.0 0.0 0.0 15.5 0.0 0.00 0.0000081 61.0
2021-05-04 03:15:00 53.7 56.4 38.6 53.7 0.0 0.0 0.0 292.2 0.0 0.00 0.0000040 60.9
2021-05-04 03:20:00 53.4 59.2 39.5 53.4 0.0 0.0 0.0 234.5 0.0 0.00 0.0000020 60.9
2021-05-04 03:25:00 53.5 60.8 40.3 53.5 0.0 2.1 0.4 245.8 222.1 0.00 0.0000000 60.8
2021-05-04 03:30:00 53.5 59.6 39.8 53.5 0.0 0.8 0.1 168.0 228.0 0.00 0.0000000 60.8
2021-05-04 03:35:00 53.3 59.8 39.7 53.3 0.0 0.0 0.0 222.1 0.0 0.00 0.0000000 60.8
2021-05-04 03:40:00 53.7 59.7 40.0 53.7 1.7 3.3 0.6 239.6 222.7 0.00 0.0000000 60.7
2021-05-04 03:45:00 53.5 60.3 40.1 53.5 0.0 1.5 0.1 244.0 247.0 0.00 0.0000000 60.6
2021-05-04 03:50:00 53.2 59.9 39.7 53.2 2.8 3.5 1.6 201.1 208.6 0.00 0.0000000 60.6
2021-05-04 03:55:00 53.6 60.1 40.1 53.6 2.2 3.0 1.2 194.3 190.3 0.00 0.0000000 60.6
2021-05-04 04:00:00 53.7 59.8 40.1 53.7 3.1 3.3 1.8 231.0 216.1 0.00 0.0000000 60.5
2021-05-04 04:05:00 53.5 59.3 39.7 53.5 2.8 4.4 2.9 182.3 203.8 0.00 0.0000000 60.4
2021-05-04 04:10:00 53.9 59.5 40.1 53.9 1.0 2.8 1.6 169.4 183.0 0.00 0.0000000 60.4
2021-05-04 04:15:00 53.6 59.0 39.6 53.6 1.9 3.5 2.2 183.7 183.4 0.00 0.0000000 60.4
2021-05-04 04:20:00 53.6 59.4 39.8 53.6 2.4 3.5 2.6 208.0 199.9 0.00 0.0000000 60.3
2021-05-04 04:25:00 53.5 59.4 39.8 53.5 1.0 3.3 1.4 125.6 183.3 0.00 0.0000000 60.3
2021-05-04 04:30:00 53.5 59.3 39.7 53.5 2.8 3.1 1.4 41.2 86.1 0.00 0.0000000 60.2
2021-05-04 04:35:00 53.9 58.8 39.7 53.9 5.1 6.2 4.1 4.5 19.0 0.00 0.0000000 60.2
2021-05-04 04:40:00 54.1 56.8 39.1 54.1 5.3 6.2 4.8 331.9 351.0 0.00 0.0000000 60.1
2021-05-04 04:45:00 54.3 57.6 39.7 54.3 0.0 5.5 3.0 253.0 325.6 0.00 0.0000000 60.1
2021-05-04 04:50:00 53.9 58.5 39.6 53.9 0.0 2.1 0.7 239.7 272.0 0.00 0.0000000 60.1
2021-05-04 04:55:00 53.6 56.7 38.6 53.6 0.0 2.6 1.2 303.6 267.9 0.00 0.0000000 60.0
2021-05-04 05:00:00 53.8 55.3 38.1 53.8 3.0 5.6 2.1 298.7 319.0 0.00 0.0000000 60.0
2021-05-04 05:05:00 53.8 56.0 38.4 53.8 3.1 4.2 0.7 292.8 284.0 0.00 0.0000000 59.9
2021-05-04 05:10:00 54.1 52.4 37.1 54.1 1.7 4.6 2.4 272.6 277.0 0.00 0.0000000 59.9
2021-05-04 05:15:00 54.2 50.2 36.0 54.2 7.1 8.8 5.3 333.2 334.5 0.00 0.0000000 59.8
2021-05-04 05:20:00 54.2 47.4 34.6 54.2 7.8 9.4 6.7 0.2 337.7 0.00 0.0000000 59.8
2021-05-04 05:25:00 54.3 47.4 34.7 54.3 4.0 8.0 6.0 7.7 353.9 0.00 0.0000000 59.8
2021-05-04 05:30:00 54.2 48.8 35.3 54.2 4.0 7.2 4.9 18.4 0.6 0.00 0.0000000 59.7
2021-05-04 05:35:00 54.0 50.4 36.0 54.0 6.0 7.4 4.2 330.9 16.1 0.00 0.0000000 59.7
2021-05-04 05:40:00 53.9 53.6 37.4 53.9 6.0 7.1 4.4 323.0 357.0 0.00 0.0000000 59.6
2021-05-04 05:45:00 53.5 55.2 37.9 53.5 4.6 6.9 5.6 21.5 355.2 0.00 0.0000000 59.6
2021-05-04 05:50:00 53.2 55.8 37.8 53.2 3.5 8.8 4.7 341.8 351.7 0.00 0.0000000 59.6
2021-05-04 05:55:00 53.1 56.1 37.8 53.1 3.3 5.1 4.0 312.8 339.7 0.00 0.0000020 59.5
2021-05-04 06:00:00 52.9 56.6 37.9 52.9 3.3 5.3 3.2 18.5 337.0 0.00 0.0000445 59.5
2021-05-04 06:05:00 52.8 57.3 38.1 52.8 0.0 2.8 1.4 341.9 347.1 0.00 0.0001435 59.5
2021-05-04 06:10:00 52.6 57.6 38.1 52.6 0.0 3.3 1.7 341.9 353.4 0.00 0.0003760 59.4
2021-05-04 06:15:00 52.4 57.8 38.0 52.4 1.9 4.7 0.8 10.6 30.2 0.00 0.0008066 59.3
2021-05-04 06:20:00 52.4 57.7 38.0 52.4 0.0 3.0 1.0 57.1 49.9 0.00 0.0014979 59.3
2021-05-04 06:25:00 52.6 57.6 38.0 52.6 1.9 1.9 0.5 83.1 98.5 0.00 0.0023894 59.3
2021-05-04 06:30:00 52.8 57.6 38.2 52.8 0.0 2.8 0.7 311.9 106.1 0.00 0.0034749 59.2
2021-05-04 06:35:00 52.0 60.0 38.6 52.0 1.7 2.8 1.5 249.9 260.9 0.00 0.0046028 59.2
2021-05-04 06:40:00 52.3 58.9 38.3 52.3 2.6 3.7 1.2 265.3 273.5 0.00 0.0073864 59.1
2021-05-04 06:45:00 52.8 57.7 38.3 52.8 2.8 3.8 1.7 222.3 307.7 0.00 0.0130244 59.1
2021-05-04 06:50:00 52.9 57.2 38.1 52.9 3.8 6.5 2.4 332.3 285.1 0.00 0.0176802 59.1
2021-05-04 06:55:00 53.1 56.9 38.2 53.1 1.3 6.0 3.6 253.6 324.0 0.00 0.0227970 59.0
2021-05-04 07:00:00 53.4 56.1 38.1 53.4 2.2 6.7 3.3 311.9 315.9 0.00 0.0282353 59.0
2021-05-04 07:05:00 53.7 55.8 38.3 53.7 2.2 4.0 2.4 295.4 319.4 0.00 0.0338593 59.0
2021-05-04 07:10:00 53.7 56.3 38.5 53.7 2.4 2.8 1.9 260.4 281.7 0.00 0.0387981 58.9
2021-05-04 07:15:00 53.5 56.1 38.3 53.5 3.0 5.8 2.9 302.9 271.8 0.00 0.0423443 58.9
2021-05-04 07:20:00 54.2 56.1 38.9 54.2 1.2 3.3 1.9 329.9 278.6 0.00 0.0483499 58.8
2021-05-04 07:25:00 54.1 55.6 38.6 54.1 2.8 8.1 3.5 295.1 304.1 0.00 0.0533372 58.8
2021-05-04 07:30:00 54.6 54.5 38.6 54.6 3.8 6.0 3.5 322.3 314.9 0.00 0.0583912 58.8
2021-05-04 07:35:00 54.5 55.4 38.9 54.5 1.9 5.5 3.2 289.8 318.7 0.00 0.0637194 58.8
2021-05-04 07:40:00 55.2 52.8 38.3 55.2 4.4 5.6 3.4 333.4 321.5 0.00 0.0689414 58.7
2021-05-04 07:45:00 55.8 52.1 38.5 55.8 5.6 6.5 3.3 330.6 308.4 0.00 0.0743280 58.7
2021-05-04 07:50:00 55.8 52.2 38.5 55.8 6.5 7.8 4.4 340.8 328.8 0.00 0.0798667 58.7
2021-05-04 07:55:00 55.7 52.1 38.4 55.7 7.2 8.0 5.3 0.0 333.2 0.00 0.0853002 58.7
2021-05-04 08:00:00 55.9 52.3 38.6 55.9 4.9 7.4 5.8 0.3 346.1 0.00 0.0907943 58.6
2021-05-04 08:05:00 56.0 50.9 38.1 56.0 6.2 7.2 4.7 0.1 343.4 0.00 0.0962353 58.6
2021-05-04 08:10:00 56.1 51.9 38.6 56.1 5.1 7.2 5.4 329.6 344.8 0.00 0.1015690 58.6
2021-05-04 08:15:00 56.5 51.4 38.8 56.5 5.8 7.6 5.5 8.8 344.1 0.00 0.1069718 58.6
2021-05-04 08:20:00 56.5 50.9 38.5 56.5 6.2 7.4 5.1 334.0 336.1 0.00 0.1124823 58.5
2021-05-04 08:25:00 56.9 50.0 38.5 56.9 7.1 7.1 2.9 8.8 303.9 0.00 0.1179136 58.5
2021-05-04 08:30:00 56.9 50.3 38.6 56.9 3.8 7.2 5.8 7.1 348.5 0.00 0.1232515 58.5
2021-05-04 08:35:00 57.2 49.7 38.6 57.2 4.2 6.5 4.2 338.9 342.6 0.00 0.1284292 58.5
2021-05-04 08:40:00 57.3 49.4 38.5 57.3 6.7 8.1 5.9 328.7 349.5 0.00 0.1338014 58.5
2021-05-04 08:45:00 57.9 48.9 38.8 57.9 4.2 6.5 5.0 0.1 353.7 0.00 0.1390998 58.4
2021-05-04 08:50:00 57.5 52.1 40.1 57.5 4.0 7.2 5.0 39.3 19.6 0.00 0.1442878 58.4
2021-05-04 08:55:00 58.0 50.2 39.5 58.0 2.8 5.3 4.0 273.9 358.3 0.00 0.1495289 58.3
2021-05-04 09:00:00 58.4 50.7 40.2 58.4 3.8 5.3 3.6 63.5 2.6 0.00 0.1546444 58.3
2021-05-04 09:05:00 58.6 51.2 40.6 58.6 4.2 6.0 3.8 43.6 34.5 0.00 0.1596863 58.3
2021-05-04 09:10:00 58.5 49.3 39.6 58.5 2.6 5.1 3.0 11.6 35.6 0.00 0.1646671 58.3
2021-05-04 09:15:00 59.6 50.6 41.2 59.6 0.0 5.3 2.4 18.7 5.4 0.00 0.1697288 58.3
2021-05-04 09:20:00 59.7 46.0 38.9 59.7 3.5 6.9 3.5 291.2 272.8 0.00 0.1747174 58.3
2021-05-04 09:25:00 59.6 46.2 38.9 59.6 1.3 4.7 3.1 13.8 256.4 0.00 0.1795542 58.3
2021-05-04 09:30:00 60.7 46.5 40.1 60.7 3.7 5.3 3.2 10.0 353.7 0.00 0.1843890 58.3
2021-05-04 09:35:00 60.2 46.3 39.5 60.2 1.9 4.2 3.0 289.2 255.5 0.00 0.1889512 58.3
2021-05-04 09:40:00 60.5 46.7 40.0 60.5 4.0 5.8 2.8 198.5 239.5 0.00 0.1936259 58.3
2021-05-04 09:45:00 61.2 45.1 39.7 61.2 1.3 4.7 2.2 319.5 192.6 0.00 0.1979124 58.4
2021-05-04 09:50:00 62.3 43.1 39.6 62.3 2.6 3.7 1.5 145.5 129.1 0.00 0.2026876 58.4
2021-05-04 09:55:00 62.6 47.0 42.1 62.6 0.0 3.5 1.9 281.4 119.0 0.00 0.2070530 58.4
2021-05-04 10:00:00 62.9 41.9 39.4 62.9 3.3 3.3 2.2 114.3 98.4 0.00 0.2112858 58.5
2021-05-04 10:05:00 62.5 42.4 39.3 62.5 2.2 5.1 3.3 82.5 99.3 0.00 0.2154274 58.5
2021-05-04 10:10:00 63.4 42.9 40.4 63.4 2.4 3.1 1.1 286.8 113.8 0.00 0.2193696 58.6
2021-05-04 10:15:00 62.3 44.7 40.5 62.3 3.3 6.2 3.7 178.0 220.7 0.00 0.2232697 58.6
2021-05-04 10:20:00 62.4 43.5 39.9 62.4 3.7 5.3 3.3 285.2 271.5 0.00 0.2270616 58.7
2021-05-04 10:25:00 62.9 41.1 38.9 62.9 3.5 5.8 3.2 169.3 39.4 0.00 0.2309180 58.7
2021-05-04 10:30:00 64.1 40.3 39.5 64.1 1.9 3.8 2.1 128.3 186.5 0.00 0.2348384 58.8
2021-05-04 10:35:00 64.9 39.4 39.7 64.9 2.2 4.2 2.8 135.3 104.2 0.00 0.2385145 58.9
2021-05-04 10:40:00 65.2 38.4 39.3 65.2 5.6 5.6 2.9 57.7 88.4 0.00 0.2418463 58.9
2021-05-04 10:45:00 64.7 41.5 40.8 64.7 1.9 5.8 2.8 164.3 54.2 0.00 0.2449192 59.0
2021-05-04 10:50:00 65.6 38.0 39.3 65.6 3.1 5.3 3.7 236.0 188.9 0.00 0.2474138 59.1
2021-05-04 10:55:00 65.0 38.8 39.3 65.0 2.4 4.7 2.4 96.6 305.9 0.00 0.2505904 59.1
2021-05-04 11:00:00 66.3 37.1 39.3 66.3 6.3 6.3 1.6 226.3 98.7 0.00 0.2539989 59.3
2021-05-04 11:05:00 65.7 38.0 39.4 65.7 2.6 6.2 3.7 33.2 269.9 0.00 0.2573815 59.3
2021-05-04 11:10:00 67.2 34.8 38.4 67.2 3.8 4.2 1.5 83.2 144.9 0.00 0.2605923 59.4
2021-05-04 11:15:00 67.6 34.3 38.5 67.6 8.3 8.3 5.0 102.4 101.9 0.00 0.2635958 59.5
2021-05-04 11:20:00 66.6 36.3 39.1 66.6 2.1 6.7 3.2 121.0 101.3 0.00 0.2660139 59.6
2021-05-04 11:25:00 67.7 35.4 39.3 67.7 5.1 7.2 4.0 223.5 203.9 0.00 0.2684435 59.7
2021-05-04 11:30:00 68.4 34.9 39.6 68.4 4.2 6.2 3.3 176.8 174.9 0.00 0.2705538 59.9
2021-05-04 11:35:00 66.7 34.6 37.9 66.7 1.2 7.8 4.4 323.9 245.9 0.00 0.2728427 59.9
2021-05-04 11:40:00 67.4 35.1 38.9 67.4 1.7 4.7 2.3 118.3 219.4 0.00 0.2750519 60.1
2021-05-04 11:45:00 69.2 35.9 41.0 69.2 1.3 3.1 1.4 72.0 108.8 0.00 0.2775617 60.2
2021-05-04 11:50:00 68.8 37.4 41.7 68.8 3.5 5.1 3.6 24.4 264.7 0.00 0.2790518 60.3
2021-05-04 11:55:00 69.5 33.5 39.5 69.5 6.9 6.9 2.7 207.4 264.5 0.00 0.2808711 60.4
2021-05-04 12:00:00 69.1 34.4 39.9 69.1 3.7 7.4 4.2 247.3 223.2 0.00 0.2825873 60.6
2021-05-04 12:05:00 69.4 33.7 39.5 69.4 3.1 9.0 5.2 105.7 203.8 0.00 0.2839053 60.7
2021-05-04 12:10:00 69.5 32.6 38.9 69.5 2.4 5.3 3.6 92.8 115.5 0.00 0.2849612 60.9
2021-05-04 12:15:00 69.9 36.9 42.4 69.9 1.9 4.6 2.9 0.1 46.6 0.00 0.2861720 61.0
2021-05-04 12:20:00 69.8 31.0 37.8 69.8 4.6 7.4 4.2 136.2 49.4 0.00 0.2876190 61.1
2021-05-04 12:25:00 70.6 31.8 39.2 70.6 2.8 6.3 4.4 31.7 111.5 0.00 0.2886047 61.3
2021-05-04 12:30:00 70.1 31.3 38.3 70.1 4.6 9.4 3.8 89.7 96.9 0.00 0.2897900 61.4
2021-05-04 12:35:00 70.3 31.7 38.8 70.3 2.1 7.2 3.8 61.3 64.5 0.00 0.2907283 61.6
2021-05-04 12:40:00 70.6 32.5 39.7 70.6 5.1 7.4 4.1 173.9 211.5 0.00 0.2916319 61.7
2021-05-04 12:45:00 71.5 30.6 38.9 71.5 6.7 8.5 3.4 116.9 162.6 0.00 0.2918682 61.9
2021-05-04 12:50:00 71.4 30.5 38.8 71.4 7.2 7.2 4.2 193.3 184.2 0.00 0.2926051 62.0
2021-05-04 12:55:00 71.0 30.2 38.1 71.0 2.4 9.6 5.7 65.7 191.1 0.00 0.2933744 62.2
2021-05-04 13:00:00 72.4 30.1 39.3 72.4 6.3 6.3 2.5 224.5 164.4 0.00 0.2930712 62.4
2021-05-04 13:05:00 71.0 31.9 39.5 71.0 4.9 8.7 5.8 211.8 248.8 0.00 0.2927648 62.5
2021-05-04 13:10:00 72.2 29.7 38.8 72.2 8.3 9.4 5.2 220.5 169.9 0.00 0.2928606 62.7
2021-05-04 13:15:00 72.3 28.7 38.0 72.3 9.6 9.6 5.5 197.6 234.4 0.00 0.2931085 62.9
2021-05-04 13:20:00 71.4 29.9 38.3 71.4 5.3 8.8 6.1 233.8 203.6 0.00 0.2928689 63.0
2021-05-04 13:25:00 71.6 29.9 38.4 71.6 1.7 5.1 3.0 207.5 254.7 0.00 0.2927341 63.1
2021-05-04 13:30:00 71.9 28.1 37.1 71.9 6.2 11.5 6.1 177.5 204.0 0.00 0.2928521 63.3
2021-05-04 13:35:00 71.6 29.7 38.3 71.6 3.3 9.2 5.0 171.8 208.2 0.00 0.2920239 63.4
2021-05-04 13:40:00 72.6 27.4 37.1 72.6 4.0 7.2 4.2 240.2 193.6 0.00 0.2910246 63.6
2021-05-04 13:45:00 72.9 28.2 38.1 72.9 3.5 8.7 3.4 227.1 198.9 0.00 0.2904109 63.7
2021-05-04 13:50:00 73.7 25.8 36.5 73.7 3.1 8.3 5.6 120.5 157.0 0.00 0.2902623 63.8
2021-05-04 13:55:00 73.6 26.8 37.4 73.6 2.2 6.0 4.3 188.5 122.5 0.00 0.2893375 64.0
2021-05-04 14:00:00 74.8 25.0 36.6 74.8 3.1 4.2 2.5 18.4 48.6 0.00 0.2887967 64.1
2021-05-04 14:05:00 74.4 25.7 37.0 74.4 2.6 5.6 3.3 310.5 0.1 0.00 0.2874484 64.2
2021-05-04 14:10:00 74.2 27.6 38.6 74.2 5.5 9.0 4.6 217.7 257.6 0.00 0.2853278 64.4
2021-05-04 14:15:00 73.1 26.5 36.6 73.1 1.3 8.5 4.8 240.4 235.4 0.00 0.2829782 64.5
2021-05-04 14:20:00 75.0 23.5 35.2 75.0 4.2 6.9 3.6 115.6 147.5 0.00 0.2814654 64.7
2021-05-04 14:25:00 75.6 22.1 34.2 75.6 3.7 8.7 5.5 112.7 108.2 0.00 0.2802047 64.8
2021-05-04 14:30:00 74.7 22.6 34.0 74.7 4.0 8.0 4.6 101.9 96.0 0.00 0.2791171 64.9
2021-05-04 14:35:00 75.8 22.0 34.2 75.8 6.5 8.0 3.8 115.4 101.5 0.00 0.2780688 65.0
2021-05-04 14:40:00 75.1 21.4 33.0 75.1 8.5 11.2 7.0 49.6 72.5 0.00 0.2762707 65.2
2021-05-04 14:45:00 74.0 22.2 33.0 74.0 5.1 11.2 5.6 64.4 23.4 0.00 0.2727510 65.3
2021-05-04 14:50:00 74.4 22.0 33.1 74.4 4.0 8.5 5.1 334.3 18.8 0.00 0.2698055 65.4
2021-05-04 14:55:00 74.7 23.0 34.4 74.7 7.1 7.6 4.8 20.2 18.3 0.00 0.2672964 65.6
2021-05-04 15:00:00 75.4 22.2 34.2 75.4 3.5 7.2 4.4 6.0 19.8 0.00 0.2646064 65.7
2021-05-04 15:05:00 75.2 18.7 29.7 75.2 7.1 8.3 6.3 21.9 18.6 0.00 0.2626317 65.8
2021-05-04 15:10:00 75.8 19.5 31.3 75.8 4.7 6.9 3.3 30.5 94.3 0.00 0.2602781 65.9
2021-05-04 15:15:00 75.4 18.0 29.0 75.4 2.6 7.2 4.6 110.7 18.3 0.00 0.2566638 66.1
2021-05-04 15:20:00 75.7 22.1 34.3 75.7 2.8 8.0 3.5 221.0 187.7 0.00 0.2542720 66.2
2021-05-04 15:25:00 76.1 22.6 35.1 76.1 3.1 6.3 3.4 178.8 277.8 0.00 0.2510914 66.3
2021-05-04 15:30:00 76.4 17.7 29.4 76.4 5.6 7.1 3.8 180.0 168.9 0.00 0.2477139 66.4
2021-05-04 15:35:00 77.0 18.4 30.7 77.0 5.1 7.6 4.4 209.9 195.0 0.00 0.2443375 66.6
2021-05-04 15:40:00 76.7 17.6 29.6 76.7 0.8 6.0 2.0 51.7 174.8 0.00 0.2413563 66.7
2021-05-04 15:45:00 76.4 17.2 28.7 76.4 2.8 4.7 2.7 55.5 70.5 0.00 0.2376973 66.8
2021-05-04 15:50:00 77.4 16.5 28.4 77.4 2.6 5.1 3.0 57.0 106.1 0.00 0.2338636 66.9
2021-05-04 15:55:00 78.2 15.9 28.1 78.2 0.8 3.1 1.3 245.4 21.4 0.00 0.2300548 67.0
2021-05-04 16:00:00 78.0 16.4 28.7 78.0 3.8 7.6 4.1 154.7 184.4 0.00 0.2255101 67.1
2021-05-04 16:05:00 76.9 15.8 27.1 76.9 2.6 10.5 5.7 184.6 193.2 0.00 0.2207927 67.2
2021-05-04 16:10:00 77.5 14.1 24.7 77.5 3.5 4.7 2.4 185.8 181.3 0.00 0.2164563 67.3
2021-05-04 16:15:00 78.1 15.2 27.0 78.1 1.0 6.3 3.1 98.8 303.9 0.00 0.2125784 67.4
2021-05-04 16:20:00 78.0 16.4 28.7 78.0 5.8 7.2 3.6 263.0 290.4 0.00 0.2077115 67.4
2021-05-04 16:25:00 77.3 15.6 27.1 77.3 5.5 6.3 4.3 0.1 272.9 0.00 0.2029676 67.5
2021-05-04 16:30:00 77.5 15.6 27.2 77.5 5.3 9.2 4.3 229.8 313.1 0.00 0.1984291 67.6
2021-05-04 16:35:00 77.3 17.8 30.3 77.3 4.2 7.1 5.1 233.8 250.8 0.00 0.1940640 67.6
2021-05-04 16:40:00 77.7 15.3 26.9 77.7 2.8 8.1 4.8 175.8 190.9 0.00 0.1893121 67.7
2021-05-04 16:45:00 77.6 16.5 28.6 77.6 3.7 7.4 4.6 223.8 240.1 0.00 0.1837911 67.8
2021-05-04 16:50:00 77.5 16.0 27.8 77.5 1.5 7.2 4.3 327.0 239.3 0.00 0.1785288 67.8
2021-05-04 16:55:00 77.3 15.4 26.8 77.3 4.6 5.3 3.7 290.6 275.0 0.00 0.1737062 67.9
2021-05-04 17:00:00 76.6 16.4 27.5 76.6 3.5 6.9 3.6 79.2 48.6 0.00 0.1684902 67.9
2021-05-04 17:05:00 77.6 17.4 29.9 77.6 2.4 4.2 2.8 232.0 104.0 0.00 0.1635957 68.0
2021-05-04 17:10:00 78.1 16.5 29.0 78.1 7.6 7.6 4.2 217.5 305.4 0.00 0.1585898 68.0
2021-05-04 17:15:00 78.3 15.6 27.8 78.3 2.1 7.6 4.0 142.9 186.0 0.00 0.1536818 68.1
2021-05-04 17:20:00 78.3 16.0 28.5 78.3 3.0 5.3 2.6 268.8 278.6 0.00 0.1484070 68.1
2021-05-04 17:25:00 78.4 16.4 29.1 78.4 3.1 5.6 3.6 191.5 204.5 0.00 0.1428154 68.1
2021-05-04 17:30:00 79.0 15.7 28.6 79.0 4.6 5.5 3.2 170.2 144.8 0.00 0.1376699 68.2
2021-05-04 17:35:00 78.3 15.9 28.3 78.3 5.3 5.6 3.0 147.9 155.6 0.00 0.1323128 68.2
2021-05-04 17:40:00 78.8 15.9 28.6 78.8 1.7 6.9 3.1 98.8 137.6 0.00 0.1266285 68.2
2021-05-04 17:45:00 78.8 16.1 29.0 78.8 3.3 4.4 2.5 163.8 164.9 0.00 0.1210056 68.2
2021-05-04 17:50:00 78.9 16.2 29.1 78.9 4.7 6.2 4.6 184.7 169.1 0.00 0.1154922 68.2
2021-05-04 17:55:00 78.6 16.1 28.8 78.6 6.9 6.9 4.6 243.3 204.4 0.00 0.1104259 68.2
2021-05-04 18:00:00 78.1 16.2 28.6 78.1 3.0 6.3 3.0 150.4 216.1 0.00 0.1050211 68.3
2021-05-04 18:05:00 77.8 16.3 28.4 77.8 3.7 6.3 3.4 99.0 121.4 0.00 0.0996584 68.3
2021-05-04 18:10:00 78.3 16.7 29.5 78.3 2.8 4.9 3.1 211.0 140.3 0.00 0.0941885 68.2
2021-05-04 18:15:00 78.2 15.9 28.2 78.2 3.1 5.3 3.1 166.5 150.2 0.00 0.0888813 68.2
2021-05-04 18:20:00 78.0 15.8 28.0 78.0 2.1 5.3 3.0 273.8 118.0 0.00 0.0834724 68.2
2021-05-04 18:25:00 78.9 15.9 28.7 78.9 0.0 2.6 0.9 174.8 285.2 0.00 0.0782168 68.2
2021-05-04 18:30:00 78.4 16.6 29.3 78.4 3.1 4.9 3.2 93.6 132.8 0.00 0.0728278 68.2
2021-05-04 18:35:00 78.4 16.3 28.9 78.4 2.6 6.2 3.7 203.8 160.3 0.00 0.0674830 68.2
2021-05-04 18:40:00 78.2 16.3 28.8 78.2 2.2 4.2 2.8 190.6 169.5 0.00 0.0621592 68.2
2021-05-04 18:45:00 78.2 15.6 27.8 78.2 0.0 3.8 2.4 159.2 189.5 0.00 0.0568448 68.1
2021-05-04 18:50:00 78.3 16.1 28.6 78.3 2.1 4.0 1.5 216.5 143.1 0.00 0.0516921 68.1
2021-05-04 18:55:00 78.0 16.4 28.7 78.0 1.9 4.2 2.7 132.5 138.0 0.00 0.0467887 68.1
2021-05-04 19:00:00 78.1 16.5 29.0 78.1 0.0 3.5 1.8 105.7 123.4 0.00 0.0419893 68.1
2021-05-04 19:05:00 77.6 16.6 28.7 77.6 1.3 5.1 2.8 135.0 128.9 0.00 0.0372417 68.0
2021-05-04 19:10:00 77.3 16.2 28.0 77.3 4.9 4.9 2.3 147.0 126.2 0.00 0.0320040 68.0
2021-05-04 19:15:00 77.1 16.9 28.8 77.1 1.5 4.9 2.3 158.3 135.5 0.00 0.0257554 68.0
2021-05-04 19:20:00 76.9 16.7 28.3 76.9 4.6 4.9 2.2 178.0 146.9 0.00 0.0206235 67.9
2021-05-04 19:25:00 76.3 17.2 28.5 76.3 3.3 4.7 3.3 135.5 141.6 0.00 0.0138707 67.9
2021-05-04 19:30:00 75.7 17.1 27.9 75.7 2.6 5.8 2.6 119.9 133.6 0.00 0.0059353 67.9
2021-05-04 19:35:00 75.6 18.2 29.3 75.6 1.9 4.9 2.6 147.6 141.4 0.00 0.0043365 67.8
2021-05-04 19:40:00 74.8 18.3 28.8 74.8 2.4 4.0 2.3 128.2 155.2 0.00 0.0035513 67.8
2021-05-04 19:45:00 74.4 18.7 29.1 74.4 2.2 3.7 1.9 174.6 145.4 0.00 0.0026791 67.7
2021-05-04 19:50:00 74.0 19.2 29.5 74.0 1.0 4.0 2.5 146.1 152.4 0.00 0.0018090 67.7
2021-05-04 19:55:00 73.5 20.1 30.1 73.5 1.7 5.3 2.5 137.5 147.6 0.00 0.0011387 67.6
2021-05-04 20:00:00 73.2 19.8 29.5 73.2 5.5 5.5 2.5 170.9 151.8 0.00 0.0006380 67.6
2021-05-04 20:05:00 72.9 20.5 30.1 72.9 2.1 4.6 2.5 157.3 156.2 0.00 0.0002948 67.6
2021-05-04 20:10:00 72.5 21.8 31.3 72.5 1.3 3.1 2.0 86.1 143.5 0.00 0.0001131 67.5
2021-05-04 20:15:00 72.1 21.3 30.4 72.1 2.6 4.6 2.9 154.9 146.7 0.00 0.0000565 67.5
2021-05-04 20:20:00 71.9 22.1 31.1 71.9 1.7 3.7 2.0 160.9 155.2 0.00 0.0000040 67.4
2021-05-04 20:25:00 71.3 23.0 31.6 71.3 0.0 4.0 1.3 167.0 153.2 0.00 0.0000000 67.4
2021-05-04 20:30:00 70.8 22.8 31.0 70.8 2.1 4.6 2.0 209.8 161.3 0.00 0.0000000 67.3
2021-05-04 20:35:00 70.6 24.1 32.1 70.6 3.5 3.5 1.3 142.1 162.2 0.00 0.0000000 67.2
2021-05-04 20:40:00 69.9 24.4 31.9 69.9 1.2 3.5 1.9 138.1 163.6 0.00 0.0000000 67.2
2021-05-04 20:45:00 69.5 25.2 32.3 69.5 0.0 3.5 1.0 191.1 165.8 0.00 0.0000000 67.1
2021-05-04 20:50:00 69.2 26.0 32.8 69.2 1.7 2.8 0.8 131.8 170.5 0.00 0.0000020 67.0
2021-05-04 20:55:00 68.7 26.4 32.8 68.7 2.8 3.1 1.9 171.1 175.2 0.00 0.0000000 67.0
2021-05-04 21:00:00 68.3 27.6 33.5 68.3 1.3 4.7 2.1 156.3 164.1 0.00 0.0000000 66.9
2021-05-04 21:05:00 68.2 27.8 33.6 68.2 3.0 3.5 2.0 138.7 141.3 0.00 0.0000020 66.9
2021-05-04 21:10:00 68.0 27.7 33.5 68.0 2.1 4.0 2.0 167.7 149.0 0.00 0.0000000 66.8
2021-05-04 21:15:00 67.6 28.2 33.5 67.6 2.6 3.7 1.2 142.9 165.9 0.00 0.0000020 66.8
2021-05-04 21:20:00 67.4 28.7 33.8 67.4 0.0 2.1 0.7 142.3 150.6 0.00 0.0000061 66.7
2021-05-04 21:25:00 66.8 29.3 33.8 66.8 0.0 2.8 0.8 179.0 138.2 0.00 0.0000081 66.6
2021-05-04 21:30:00 66.8 29.1 33.6 66.8 2.2 4.2 1.6 91.3 135.6 0.00 0.0000162 66.6
2021-05-04 21:35:00 66.9 29.8 34.2 66.9 0.0 3.1 1.6 113.8 157.4 0.00 0.0000162 66.5
2021-05-04 21:40:00 66.7 29.4 33.8 66.7 2.4 3.1 1.4 141.6 151.5 0.00 0.0000101 66.4
2021-05-04 21:45:00 66.7 29.3 33.7 66.7 0.0 3.3 1.8 109.8 138.2 0.00 0.0000343 66.4
2021-05-04 21:50:00 66.3 29.1 33.2 66.3 1.9 4.2 1.3 112.3 134.6 0.00 0.0000364 66.3
2021-05-04 21:55:00 66.3 29.0 33.1 66.3 1.0 3.7 2.3 132.9 123.9 0.00 0.0000283 66.3
2021-05-04 22:00:00 66.2 28.5 32.5 66.2 1.9 2.8 1.7 139.6 129.1 0.00 0.0000182 66.2
2021-05-04 22:05:00 66.2 28.4 32.5 66.2 0.0 3.5 2.1 138.1 151.2 0.00 0.0000061 66.1
2021-05-04 22:10:00 65.8 28.5 32.3 65.8 0.0 1.3 0.5 132.2 135.0 0.00 0.0000121 66.0
2021-05-04 22:15:00 65.4 28.7 32.1 65.4 0.0 2.2 0.3 138.7 126.1 0.00 0.0000040 66.0
2021-05-04 22:20:00 65.2 29.2 32.4 65.2 0.8 1.9 0.4 143.4 158.8 0.00 0.0000020 65.9
2021-05-04 22:25:00 64.8 29.2 31.9 64.8 0.0 1.3 0.2 191.8 154.3 0.00 0.0000061 65.9
2021-05-04 22:30:00 64.3 28.8 31.2 64.3 1.7 3.1 1.0 144.3 154.5 0.00 0.0000000 65.8
2021-05-04 22:35:00 64.1 29.7 31.8 64.1 1.2 2.1 0.7 152.1 159.0 0.00 0.0000000 65.7
2021-05-04 22:40:00 63.8 30.5 32.1 63.8 1.0 1.5 0.4 161.5 150.1 0.00 0.0000000 65.7
2021-05-04 22:45:00 63.6 30.1 31.6 63.6 0.8 2.2 0.3 139.1 154.0 0.00 0.0000000 65.6
2021-05-04 22:50:00 63.0 30.4 31.4 63.0 0.0 1.0 0.1 170.6 134.8 0.00 0.0000000 65.6
2021-05-04 22:55:00 62.7 31.5 32.0 62.7 0.0 0.8 0.1 64.8 185.2 0.00 0.0000000 65.5
2021-05-04 23:00:00 62.6 32.1 32.4 62.6 0.0 0.0 0.0 195.8 0.0 0.00 0.0000000 65.4
2021-05-04 23:05:00 61.9 33.8 33.1 61.9 0.8 2.1 0.8 244.4 210.7 0.00 0.0000000 65.4
2021-05-04 23:10:00 61.5 33.0 32.1 61.5 0.0 1.0 0.1 126.8 189.7 0.00 0.0000000 65.3
2021-05-04 23:15:00 61.6 33.3 32.4 61.6 1.2 1.7 0.4 214.7 163.5 0.00 0.0000000 65.3
2021-05-04 23:20:00 61.4 32.7 31.8 61.4 1.0 1.7 0.5 103.3 188.0 0.00 0.0000000 65.2
2021-05-04 23:25:00 61.2 32.5 31.5 61.2 0.0 1.2 0.2 149.0 146.2 0.00 0.0000000 65.1
2021-05-04 23:30:00 61.2 31.8 31.0 61.2 0.0 0.8 0.0 124.0 164.0 0.00 0.0000020 65.1
2021-05-04 23:35:00 61.4 32.4 31.5 61.4 0.0 1.0 0.1 175.7 145.4 0.00 0.0000000 65.0
2021-05-04 23:40:00 61.1 32.3 31.2 61.1 0.0 0.0 0.0 218.1 0.0 0.00 0.0000020 64.9
2021-05-04 23:45:00 60.8 34.4 32.6 60.8 2.1 2.4 1.3 243.8 222.7 0.00 0.0000000 64.9
2021-05-04 23:50:00 60.5 33.9 31.9 60.5 0.0 1.9 0.5 255.2 244.9 0.00 0.0000000 64.8
2021-05-04 23:55:00 60.0 36.5 33.3 60.0 0.0 0.0 0.0 220.1 0.0 0.00 0.0000000 64.7
2021-05-05 00:00:00 59.4 38.0 33.8 59.4 0.0 0.0 0.0 207.9 0.0 0.00 0.0000000 64.7

Data is courtesy of the NM Climate Center. DO NOT USE IN LEGAL PROCEEDINGS.